Time;durP1;ratioP1;P1;durP2;ratioP2;P2;SDS_P1;SDS_P2;PMS_P1;PMS_P2;Temp;Humidity;BMP_temperature;BMP_pressure;BME280_temperature;BME280_humidity;BME280_pressure;Samples;Min_cycle;Max_cycle;Signal;HPM_P1;HPM_P2
2023/08/04 00:00:11;;;;;;;0.90;0.90;;;22.40;55.20;;;;;;5041462;28;20227;-43
2023/08/04 00:02:37;;;;;;;1.60;1.30;;;22.30;55.30;;;;;;5043694;28;20443;-43
2023/08/04 00:05:04;;;;;;;4.00;1.33;;;22.30;55.30;;;;;;5043621;28;20529;-45
2023/08/04 00:07:30;;;;;;;2.73;1.20;;;22.40;55.10;;;;;;5047990;28;20447;-45
2023/08/04 00:09:56;;;;;;;1.33;1.20;;;22.30;55.20;;;;;;5044684;28;20482;-43
2023/08/04 00:12:22;;;;;;;2.53;1.07;;;22.30;55.50;;;;;;5043423;28;20438;-42
2023/08/04 00:14:48;;;;;;;3.10;1.30;;;22.10;56.00;;;;;;5046341;28;20656;-42
2023/08/04 00:17:14;;;;;;;5.50;1.53;;;22.20;56.10;;;;;;5053272;28;20440;-43
2023/08/04 00:19:41;;;;;;;1.10;0.80;;;22.20;56.10;;;;;;5039013;28;20564;-43
2023/08/04 00:22:07;;;;;;;1.53;1.37;;;22.30;55.90;;;;;;5040008;28;20428;-43
2023/08/04 00:24:32;;;;;;;1.97;1.10;;;22.40;55.80;;;;;;5042654;28;20442;-42
2023/08/04 00:27:00;;;;;;;3.23;1.20;;;22.40;55.60;;;;;;5045596;28;20201;-44
2023/08/04 00:29:26;;;;;;;1.60;1.23;;;22.50;55.60;;;;;;5046925;28;20199;-42
2023/08/04 00:31:51;;;;;;;3.07;1.30;;;22.50;55.40;;;;;;5053143;28;20917;-43
2023/08/04 00:34:17;;;;;;;0.90;0.90;;;22.50;55.40;;;;;;5044094;28;20601;-43
2023/08/04 00:36:44;;;;;;;2.70;1.53;;;22.50;55.20;;;;;;5050682;28;20199;-43
2023/08/04 00:39:10;;;;;;;2.83;1.40;;;22.50;55.20;;;;;;5052713;28;20201;-44
2023/08/04 00:41:35;;;;;;;4.50;1.30;;;22.40;55.50;;;;;;5038935;28;20573;-46
2023/08/04 00:44:01;;;;;;;3.20;1.30;;;22.40;55.60;;;;;;5040817;28;20849;-43
2023/08/04 00:46:29;;;;;;;3.10;1.50;;;22.10;56.30;;;;;;5043452;28;20184;-43
2023/08/04 00:48:58;;;;;;;2.40;1.47;;;21.90;57.00;;;;;;5047367;28;20854;-43
2023/08/04 00:51:24;;;;;;;1.77;1.47;;;21.70;57.30;;;;;;5049918;28;20510;-42
2023/08/04 00:53:50;;;;;;;2.87;1.30;;;21.70;57.90;;;;;;5048100;28;21063;-42
2023/08/04 00:56:15;;;;;;;4.47;1.37;;;21.80;57.70;;;;;;5046387;28;20565;-44
2023/08/04 00:58:41;;;;;;;5.40;1.50;;;21.80;57.20;;;;;;5044044;28;20181;-43
2023/08/04 01:01:06;;;;;;;2.77;1.20;;;21.90;57.20;;;;;;5045995;28;20715;-43
2023/08/04 01:03:33;;;;;;;1.40;1.30;;;22.00;56.90;;;;;;5039296;28;20207;-43
2023/08/04 01:06:36;;;;;;;1.20;1.07;;;22.20;56.70;;;;;;5045057;28;20193;-43
2023/08/04 01:09:02;;;;;;;1.73;1.27;;;22.20;56.40;;;;;;5020973;28;20463;-45
2023/08/04 01:11:32;;;;;;;2.33;1.30;;;22.20;56.40;;;;;;5048958;28;20446;-43
2023/08/04 01:14:01;;;;;;;2.40;1.63;;;22.20;56.40;;;;;;5050994;28;20237;-43
2023/08/04 01:16:27;;;;;;;4.27;1.30;;;22.10;56.40;;;;;;5048497;28;21084;-43
2023/08/04 01:18:58;;;;;;;3.30;1.27;;;22.10;56.30;;;;;;5045673;28;20478;-47
2023/08/04 01:21:24;;;;;;;3.60;1.40;;;22.10;56.50;;;;;;5044327;28;20840;-42
2023/08/04 01:23:49;;;;;;;5.57;1.80;;;22.10;56.50;;;;;;5045634;28;20447;-42
2023/08/04 01:26:15;;;;;;;1.40;1.10;;;22.10;56.60;;;;;;5046819;28;20607;-43
2023/08/04 01:28:42;;;;;;;3.87;1.50;;;22.10;56.40;;;;;;5042230;28;20243;-43
2023/08/04 01:31:08;;;;;;;4.03;1.60;;;22.20;56.20;;;;;;5041648;28;20655;-43
2023/08/04 01:33:34;;;;;;;2.23;1.20;;;22.30;56.10;;;;;;5045832;28;20483;-43
2023/08/04 01:36:00;;;;;;;1.10;1.00;;;22.20;55.90;;;;;;5048579;28;20455;-46
2023/08/04 01:38:26;;;;;;;4.10;1.10;;;22.10;56.20;;;;;;5045702;28;20962;-43
2023/08/04 01:40:51;;;;;;;3.73;1.63;;;21.90;56.60;;;;;;5045977;28;20224;-43
2023/08/04 01:43:20;;;;;;;5.10;1.40;;;21.70;57.40;;;;;;5043790;28;20189;-44
2023/08/04 01:45:45;;;;;;;2.73;1.30;;;21.60;57.50;;;;;;5046693;28;20644;-42
2023/08/04 01:48:11;;;;;;;1.63;1.33;;;21.60;57.40;;;;;;5040470;28;20450;-44
2023/08/04 01:50:36;;;;;;;3.47;1.40;;;21.50;57.30;;;;;;5045394;28;20801;-43
2023/08/04 01:53:02;;;;;;;2.03;1.27;;;21.40;57.20;;;;;;5048151;28;20651;-45
2023/08/04 01:55:28;;;;;;;1.77;1.10;;;21.40;57.40;;;;;;5047858;28;20293;-46
2023/08/04 01:57:53;;;;;;;5.13;1.40;;;21.30;57.70;;;;;;5033739;28;20197;-45
2023/08/04 02:00:19;;;;;;;4.80;1.33;;;21.20;58.00;;;;;;5047902;28;20632;-43
2023/08/04 02:02:44;;;;;;;3.53;1.40;;;21.10;58.00;;;;;;5047575;28;20191;-45
2023/08/04 02:05:10;;;;;;;3.90;1.20;;;21.10;57.90;;;;;;5042933;28;20196;-43
2023/08/04 02:07:36;;;;;;;1.20;1.10;;;21.10;58.00;;;;;;5044233;28;20273;-46
2023/08/04 02:10:02;;;;;;;1.63;1.50;;;21.00;58.40;;;;;;5039035;28;20535;-44
2023/08/04 02:12:28;;;;;;;1.40;1.30;;;21.00;58.80;;;;;;5039426;28;20705;-42
2023/08/04 02:14:54;;;;;;;1.43;1.33;;;20.90;58.70;;;;;;5039739;28;20431;-42
2023/08/04 02:17:19;;;;;;;1.37;1.10;;;20.90;59.00;;;;;;5042194;28;20262;-44
2023/08/04 02:19:45;;;;;;;2.90;1.47;;;20.90;59.00;;;;;;5040207;28;20228;-45
2023/08/04 02:22:10;;;;;;;2.07;1.30;;;21.00;58.90;;;;;;5037789;28;20229;-43
2023/08/04 02:24:36;;;;;;;1.60;1.23;;;21.00;58.70;;;;;;5045947;28;20184;-43
2023/08/04 02:27:02;;;;;;;3.27;1.40;;;21.00;58.70;;;;;;5047988;28;20196;-44
2023/08/04 02:29:27;;;;;;;1.93;1.50;;;21.00;58.80;;;;;;5047362;28;20196;-43
2023/08/04 02:31:53;;;;;;;1.80;1.10;;;21.00;58.80;;;;;;5038378;28;20188;-43
2023/08/04 02:34:18;;;;;;;2.00;1.20;;;21.00;58.80;;;;;;5045251;28;20232;-43
2023/08/04 02:36:44;;;;;;;1.27;0.97;;;21.00;58.80;;;;;;5049601;28;20191;-45
2023/08/04 02:39:09;;;;;;;1.90;1.43;;;21.00;59.10;;;;;;5048761;28;20196;-44
2023/08/04 02:41:35;;;;;;;3.10;1.73;;;21.00;59.20;;;;;;5046943;28;20200;-43
2023/08/04 02:44:02;;;;;;;2.43;1.73;;;20.90;59.40;;;;;;5044363;28;20197;-43
2023/08/04 02:46:28;;;;;;;1.93;1.40;;;20.80;59.80;;;;;;5044547;28;20617;-43
2023/08/04 02:48:55;;;;;;;3.67;2.10;;;20.80;59.80;;;;;;5047052;28;20487;-43
2023/08/04 02:51:21;;;;;;;2.07;1.60;;;20.80;59.90;;;;;;5046600;28;20189;-42
2023/08/04 02:53:49;;;;;;;2.97;1.80;;;20.80;60.10;;;;;;5044282;28;20443;-42
2023/08/04 02:56:18;;;;;;;2.60;1.37;;;20.80;59.80;;;;;;5041777;28;20193;-43
2023/08/04 02:58:47;;;;;;;1.50;1.40;;;20.80;59.60;;;;;;5039726;28;20439;-45
2023/08/04 03:01:13;;;;;;;2.07;1.20;;;20.80;59.60;;;;;;5044541;28;20841;-43
2023/08/04 03:03:40;;;;;;;4.70;1.40;;;20.80;59.90;;;;;;5035397;28;20452;-44
2023/08/04 03:06:05;;;;;;;2.27;1.30;;;20.70;60.20;;;;;;5045346;28;20439;-43
2023/08/04 03:08:31;;;;;;;1.97;1.40;;;20.70;60.30;;;;;;5044819;28;20443;-43
2023/08/04 03:10:58;;;;;;;3.23;1.23;;;20.70;60.50;;;;;;5039686;28;20453;-42
2023/08/04 03:13:23;;;;;;;3.93;1.30;;;20.60;60.40;;;;;;5050410;28;20189;-44
2023/08/04 03:16:01;;;;;;;3.50;1.13;;;20.60;60.70;;;;;;5046615;28;20438;-44
2023/08/04 03:18:27;;;;;;;3.83;1.50;;;20.70;61.00;;;;;;5040330;28;20200;-42
2023/08/04 03:20:53;;;;;;;4.03;1.60;;;20.70;61.30;;;;;;5048193;28;20482;-43
2023/08/04 03:23:21;;;;;;;2.30;1.37;;;20.80;60.90;;;;;;5046064;28;20755;-42
2023/08/04 03:25:47;;;;;;;1.57;1.27;;;20.80;60.30;;;;;;5043915;28;20868;-44
2023/08/04 03:28:13;;;;;;;4.07;1.37;;;20.70;60.60;;;;;;5044097;28;20436;-42
2023/08/04 03:30:39;;;;;;;2.30;1.00;;;20.60;61.60;;;;;;5039361;28;20465;-42
2023/08/04 03:33:05;;;;;;;1.63;0.90;;;20.70;61.30;;;;;;5049567;28;20208;-42
2023/08/04 03:35:30;;;;;;;2.50;1.20;;;20.90;60.40;;;;;;5051788;28;20236;-43
2023/08/04 03:37:56;;;;;;;1.20;1.03;;;21.10;59.90;;;;;;5052481;28;20631;-45
2023/08/04 03:40:22;;;;;;;1.73;1.20;;;21.20;59.40;;;;;;5047817;28;20494;-43
2023/08/04 03:42:47;;;;;;;1.17;1.07;;;21.20;59.20;;;;;;5049693;28;20618;-44
2023/08/04 03:45:13;;;;;;;2.90;1.17;;;21.30;59.00;;;;;;5048172;28;20196;-42
2023/08/04 03:47:39;;;;;;;6.23;2.60;;;21.40;58.60;;;;;;5050954;28;20211;-43
2023/08/04 03:50:06;;;;;;;3.00;1.23;;;21.40;58.20;;;;;;5051323;28;20192;-44
2023/08/04 03:52:32;;;;;;;1.30;1.13;;;21.50;58.10;;;;;;5046384;28;20224;-43
2023/08/04 03:54:58;;;;;;;1.60;1.50;;;21.50;58.10;;;;;;5048960;28;20438;-46
2023/08/04 03:57:23;;;;;;;4.83;1.10;;;21.60;58.20;;;;;;5046809;28;20976;-43
2023/08/04 03:59:51;;;;;;;1.63;1.37;;;21.60;58.10;;;;;;5047868;28;20528;-42
2023/08/04 04:02:16;;;;;;;1.93;1.40;;;21.70;57.90;;;;;;5041531;28;20667;-45
2023/08/04 04:04:42;;;;;;;1.60;1.50;;;21.70;57.70;;;;;;5051847;28;20439;-43
2023/08/04 04:07:08;;;;;;;1.60;1.37;;;21.70;57.70;;;;;;5048144;28;20204;-42
2023/08/04 04:09:33;;;;;;;1.30;1.20;;;21.70;58.00;;;;;;5043744;28;20204;-43
2023/08/04 04:11:59;;;;;;;1.20;1.00;;;21.80;58.20;;;;;;5045469;28;20196;-43
2023/08/04 04:14:24;;;;;;;2.50;1.73;;;21.80;57.70;;;;;;5041217;28;20197;-45
2023/08/04 04:16:50;;;;;;;2.90;1.33;;;21.80;58.10;;;;;;5036530;28;20193;-43
2023/08/04 04:19:15;;;;;;;1.83;1.20;;;21.70;57.70;;;;;;5048240;28;20193;-43
2023/08/04 04:21:41;;;;;;;1.93;1.10;;;21.70;57.70;;;;;;5039585;28;20660;-45
2023/08/04 04:24:06;;;;;;;1.97;1.00;;;21.60;57.70;;;;;;5039541;28;20842;-43
2023/08/04 04:26:32;;;;;;;4.20;1.23;;;21.50;57.80;;;;;;5042850;28;20603;-44
2023/08/04 04:28:58;;;;;;;2.43;1.10;;;21.40;58.20;;;;;;5047683;28;20277;-43
2023/08/04 04:31:23;;;;;;;1.93;1.40;;;21.40;58.10;;;;;;5047695;28;20216;-42
2023/08/04 04:33:49;;;;;;;3.80;1.37;;;21.40;58.20;;;;;;5046374;28;20243;-44
2023/08/04 04:36:14;;;;;;;1.30;1.20;;;21.50;58.30;;;;;;5043101;28;20195;-42
2023/08/04 04:38:40;;;;;;;1.80;1.20;;;21.60;58.10;;;;;;5052081;28;20652;-44
2023/08/04 04:41:05;;;;;;;3.07;1.40;;;21.50;58.10;;;;;;5049598;28;20330;-43
2023/08/04 04:43:32;;;;;;;1.37;1.20;;;21.40;58.20;;;;;;5047700;28;20189;-43
2023/08/04 04:45:58;;;;;;;1.50;1.40;;;21.50;58.50;;;;;;5043587;28;20212;-44
2023/08/04 04:48:24;;;;;;;4.20;1.10;;;21.20;58.60;;;;;;5048173;28;20443;-43
2023/08/04 04:50:51;;;;;;;2.33;1.33;;;20.90;59.50;;;;;;5049801;28;20200;-44
2023/08/04 04:53:17;;;;;;;3.43;1.33;;;20.80;60.10;;;;;;5041619;28;20466;-42
2023/08/04 04:55:42;;;;;;;4.47;1.60;;;20.50;60.70;;;;;;5051316;28;20938;-43
2023/08/04 04:58:08;;;;;;;3.30;1.60;;;20.40;61.80;;;;;;5044141;28;20197;-45
2023/08/04 05:00:35;;;;;;;4.03;1.50;;;20.50;62.30;;;;;;5045844;28;20224;-44
2023/08/04 05:03:06;;;;;;;1.30;1.20;;;20.70;61.40;;;;;;5040962;28;20246;-43
2023/08/04 05:05:32;;;;;;;1.67;1.50;;;20.80;60.90;;;;;;5042263;28;20448;-44
2023/08/04 05:07:58;;;;;;;3.77;1.07;;;20.90;60.50;;;;;;5050717;28;20426;-43
2023/08/04 05:10:23;;;;;;;1.43;1.27;;;21.00;60.00;;;;;;5041898;28;20785;-44
2023/08/04 05:12:49;;;;;;;4.97;1.33;;;20.90;59.70;;;;;;5049534;28;20201;-44
2023/08/04 05:15:14;;;;;;;8.47;1.83;;;20.40;61.50;;;;;;5049381;28;20197;-43
2023/08/04 05:17:40;;;;;;;4.10;1.40;;;20.10;63.50;;;;;;5043480;28;20202;-44
2023/08/04 05:20:06;;;;;;;3.03;1.30;;;20.20;63.60;;;;;;5050351;28;20309;-42
2023/08/04 05:22:32;;;;;;;1.87;1.50;;;20.20;63.10;;;;;;5038204;28;20254;-42
2023/08/04 05:24:57;;;;;;;1.80;1.17;;;20.20;62.10;;;;;;5045685;28;21004;-42
2023/08/04 05:27:23;;;;;;;2.17;1.50;;;19.70;64.10;;;;;;5041201;28;20675;-42
2023/08/04 05:29:48;;;;;;;2.03;1.30;;;19.80;64.50;;;;;;5039564;28;20251;-42
2023/08/04 05:32:14;;;;;;;1.63;1.40;;;20.00;63.70;;;;;;5033530;28;20322;-44
2023/08/04 05:34:40;;;;;;;1.90;1.47;;;20.30;63.00;;;;;;5041514;28;20251;-43
2023/08/04 05:37:05;;;;;;;2.30;1.20;;;20.50;62.20;;;;;;5044902;28;20204;-42
2023/08/04 05:39:34;;;;;;;1.43;1.30;;;20.60;61.70;;;;;;5050889;28;20219;-42
2023/08/04 05:41:59;;;;;;;4.53;1.47;;;20.60;61.30;;;;;;5044869;28;20618;-43
2023/08/04 05:44:25;;;;;;;1.77;1.53;;;20.70;61.20;;;;;;5052173;28;20532;-45
2023/08/04 05:46:50;;;;;;;2.10;1.50;;;20.70;61.30;;;;;;5048535;28;20196;-44
2023/08/04 05:49:17;;;;;;;4.17;1.17;;;20.80;61.10;;;;;;5048612;28;20230;-42
2023/08/04 05:51:44;;;;;;;2.97;1.40;;;21.00;60.70;;;;;;5048523;28;20191;-43
2023/08/04 05:54:09;;;;;;;2.37;1.60;;;21.00;60.30;;;;;;5049267;28;20458;-43
2023/08/04 05:56:35;;;;;;;1.43;1.30;;;21.00;60.20;;;;;;5045589;28;20439;-42
2023/08/04 05:59:01;;;;;;;1.43;1.20;;;21.00;60.30;;;;;;5047952;28;20199;-43
2023/08/04 06:01:29;;;;;;;2.47;1.40;;;21.10;60.10;;;;;;5041522;28;20311;-43
2023/08/04 06:03:55;;;;;;;1.23;1.13;;;21.30;60.00;;;;;;5050501;28;20188;-43
2023/08/04 06:06:21;;;;;;;1.40;1.20;;;21.30;59.70;;;;;;5046651;28;20446;-42
2023/08/04 06:08:47;;;;;;;1.40;1.30;;;21.30;60.00;;;;;;5049540;28;20674;-43
2023/08/04 06:11:13;;;;;;;2.50;1.33;;;21.20;60.10;;;;;;5041376;28;20435;-42
2023/08/04 06:13:39;;;;;;;2.03;1.13;;;21.30;60.00;;;;;;5048097;28;20196;-43
2023/08/04 06:16:05;;;;;;;1.50;1.37;;;21.30;59.90;;;;;;5049064;28;20985;-42
2023/08/04 06:18:31;;;;;;;1.20;1.10;;;21.50;59.60;;;;;;5047873;28;20192;-42
2023/08/04 06:20:57;;;;;;;2.10;1.30;;;21.50;59.30;;;;;;5046611;28;20232;-47
2023/08/04 06:23:22;;;;;;;2.00;1.40;;;21.60;59.40;;;;;;5046191;28;20197;-44
2023/08/04 06:25:48;;;;;;;1.50;1.40;;;21.70;59.20;;;;;;5044257;28;20442;-43
2023/08/04 06:28:13;;;;;;;2.43;1.40;;;21.90;59.10;;;;;;5044060;28;20216;-44
2023/08/04 06:30:39;;;;;;;3.50;1.70;;;22.00;59.00;;;;;;5047052;28;20249;-42
2023/08/04 06:33:05;;;;;;;1.90;1.63;;;22.10;58.70;;;;;;5038586;28;20195;-44
2023/08/04 06:35:30;;;;;;;2.60;1.30;;;22.20;58.50;;;;;;5044094;28;20227;-43
2023/08/04 06:37:56;;;;;;;1.93;1.40;;;22.20;58.20;;;;;;5041509;28;20227;-43
2023/08/04 06:40:22;;;;;;;2.10;1.40;;;22.20;58.30;;;;;;5045498;28;20270;-45
2023/08/04 06:42:48;;;;;;;2.53;1.23;;;22.30;58.20;;;;;;5048233;28;20443;-43
2023/08/04 06:45:15;;;;;;;1.40;1.30;;;22.30;58.00;;;;;;5046479;28;20197;-44
2023/08/04 06:47:40;;;;;;;1.87;1.33;;;22.40;57.70;;;;;;5049600;28;20203;-43
2023/08/04 06:50:07;;;;;;;1.30;1.20;;;22.50;57.60;;;;;;5044464;28;20812;-45
2023/08/04 06:52:33;;;;;;;1.33;1.23;;;22.60;57.60;;;;;;5042766;28;20197;-46
2023/08/04 06:54:58;;;;;;;2.70;1.53;;;22.70;57.60;;;;;;5041814;28;20435;-43
2023/08/04 06:57:24;;;;;;;2.30;1.70;;;22.70;57.40;;;;;;5042587;28;20220;-44
2023/08/04 06:59:50;;;;;;;2.27;1.33;;;22.80;57.40;;;;;;5047296;28;20683;-44
2023/08/04 07:02:15;;;;;;;1.27;1.17;;;22.80;57.20;;;;;;5038325;28;20271;-45
2023/08/04 07:04:41;;;;;;;2.00;1.17;;;23.00;57.10;;;;;;5043128;28;20193;-44
2023/08/04 07:07:06;;;;;;;2.83;1.20;;;23.00;56.60;;;;;;5042370;28;20711;-45
2023/08/04 07:09:32;;;;;;;1.70;1.23;;;23.10;56.40;;;;;;5050207;28;20593;-44
2023/08/04 07:11:57;;;;;;;4.57;1.10;;;23.10;56.00;;;;;;5048412;28;20204;-47
2023/08/04 07:14:23;;;;;;;2.13;1.53;;;23.20;55.60;;;;;;5049923;28;20249;-43
2023/08/04 07:16:49;;;;;;;1.80;1.40;;;23.20;55.00;;;;;;5045335;28;20192;-44
2023/08/04 07:19:15;;;;;;;1.77;1.30;;;23.20;54.20;;;;;;5041284;28;20188;-43
2023/08/04 07:21:42;;;;;;;1.60;1.30;;;23.40;54.50;;;;;;5043096;28;20392;-45
2023/08/04 07:24:08;;;;;;;1.03;0.93;;;23.50;54.40;;;;;;5047776;28;20450;-43
2023/08/04 07:26:34;;;;;;;1.93;1.40;;;23.60;54.30;;;;;;5041015;28;20444;-42
2023/08/04 07:29:01;;;;;;;2.73;1.10;;;23.70;54.20;;;;;;5047167;28;20446;-42
2023/08/04 07:31:27;;;;;;;1.27;1.17;;;23.70;54.10;;;;;;5050262;28;21061;-45
2023/08/04 07:33:52;;;;;;;2.50;0.97;;;23.90;53.60;;;;;;5045845;28;20480;-43
2023/08/04 07:36:18;;;;;;;2.33;1.20;;;24.00;52.70;;;;;;5043948;28;20223;-43
2023/08/04 07:38:43;;;;;;;2.10;1.07;;;24.20;53.00;;;;;;5044112;28;20262;-44
2023/08/04 07:41:20;;;;;;;1.60;1.07;;;24.40;52.30;;;;;;5040712;28;20224;-44
2023/08/04 07:43:45;;;;;;;1.00;0.90;;;24.60;51.20;;;;;;5048297;28;20283;-43
2023/08/04 07:46:20;;;;;;;3.00;0.90;;;24.70;50.90;;;;;;5049685;28;20542;-47
2023/08/04 07:48:45;;;;;;;1.10;1.00;;;24.90;50.50;;;;;;5049670;28;20198;-46
2023/08/04 07:51:11;;;;;;;2.23;0.90;;;25.00;50.10;;;;;;5050702;28;20447;-44
2023/08/04 07:53:36;;;;;;;1.60;1.07;;;25.00;50.00;;;;;;5048785;28;20196;-49
2023/08/04 07:56:02;;;;;;;1.63;0.83;;;25.20;49.90;;;;;;5049697;28;20211;-47
2023/08/04 07:58:28;;;;;;;1.67;0.70;;;25.20;50.30;;;;;;5051422;28;20192;-46
2023/08/04 08:00:53;;;;;;;1.53;1.30;;;25.30;50.10;;;;;;5040279;28;20323;-43
2023/08/04 08:03:19;;;;;;;2.03;1.77;;;25.40;50.20;;;;;;5045719;28;20205;-49
2023/08/04 08:05:44;;;;;;;1.80;1.27;;;25.50;49.60;;;;;;5049916;28;20212;-45
2023/08/04 08:08:10;;;;;;;1.67;0.93;;;25.60;49.30;;;;;;5047812;28;20204;-44
2023/08/04 08:10:35;;;;;;;1.70;1.00;;;25.50;48.80;;;;;;5049857;28;20200;-45
2023/08/04 08:13:02;;;;;;;1.20;0.97;;;25.50;48.50;;;;;;5047979;28;20247;-44
2023/08/04 08:15:28;;;;;;;1.10;0.87;;;25.50;48.00;;;;;;5046859;28;20682;-44
2023/08/04 08:17:53;;;;;;;1.93;0.83;;;25.60;48.30;;;;;;5042496;28;20530;-49
2023/08/04 08:20:19;;;;;;;2.93;0.70;;;25.70;47.70;;;;;;5043945;28;20229;-46
2023/08/04 08:22:44;;;;;;;1.90;1.00;;;25.80;48.30;;;;;;5041296;28;20192;-43
2023/08/04 08:25:12;;;;;;;1.53;1.43;;;25.90;48.60;;;;;;5045252;28;20189;-43
2023/08/04 08:27:38;;;;;;;2.03;1.10;;;26.10;49.40;;;;;;5048485;28;20202;-45
2023/08/04 08:30:04;;;;;;;3.47;1.40;;;26.30;48.70;;;;;;5047542;28;20440;-43
2023/08/04 08:32:29;;;;;;;1.17;0.90;;;26.40;48.60;;;;;;5049035;28;20189;-45
2023/08/04 08:34:55;;;;;;;1.70;1.13;;;26.50;48.60;;;;;;5042759;28;20552;-43
2023/08/04 08:37:21;;;;;;;1.37;1.00;;;26.60;48.20;;;;;;5038636;28;20272;-44
2023/08/04 08:39:46;;;;;;;3.07;1.20;;;26.60;48.30;;;;;;5045819;28;20259;-44
2023/08/04 08:42:12;;;;;;;3.13;1.60;;;26.60;48.00;;;;;;5040949;28;20227;-43
2023/08/04 08:44:37;;;;;;;1.77;1.10;;;26.60;47.70;;;;;;5049968;28;20204;-46
2023/08/04 08:47:03;;;;;;;1.00;0.80;;;26.60;47.30;;;;;;5044876;28;20216;-47
2023/08/04 08:49:37;;;;;;;1.90;1.03;;;26.70;47.30;;;;;;5040170;28;20192;-43
2023/08/04 08:52:11;;;;;;;1.23;1.13;;;26.90;47.90;;;;;;5047741;28;20674;-42
2023/08/04 08:54:37;;;;;;;1.30;1.00;;;27.10;48.00;;;;;;5043977;28;20443;-44
2023/08/04 08:57:05;;;;;;;1.43;0.80;;;27.20;47.80;;;;;;5045169;28;20458;-43
2023/08/04 08:59:32;;;;;;;1.80;1.00;;;27.30;46.50;;;;;;5053064;28;20427;-44
2023/08/04 09:01:58;;;;;;;1.70;0.83;;;27.40;47.30;;;;;;5047950;28;20450;-43
2023/08/04 09:04:25;;;;;;;1.50;1.10;;;27.50;46.90;;;;;;5048104;28;20530;-44
2023/08/04 09:06:51;;;;;;;2.53;1.17;;;27.60;47.00;;;;;;5045769;28;20439;-46
2023/08/04 09:09:16;;;;;;;1.70;1.00;;;27.40;47.00;;;;;;5043601;28;20488;-43
2023/08/04 09:11:42;;;;;;;2.60;1.20;;;27.40;47.00;;;;;;5049560;28;20656;-44
2023/08/04 09:14:08;;;;;;;3.27;1.20;;;27.50;46.70;;;;;;5044273;28;20202;-46
2023/08/04 09:16:36;;;;;;;0.80;0.80;;;27.60;46.40;;;;;;5046571;28;20247;-43
2023/08/04 09:19:07;;;;;;;1.50;1.00;;;27.70;46.70;;;;;;5041194;28;20454;-43
2023/08/04 09:21:36;;;;;;;1.57;1.10;;;27.80;45.50;;;;;;5047583;28;20499;-43
2023/08/04 09:24:09;;;;;;;1.60;1.10;;;27.80;45.60;;;;;;5042500;28;20827;-44
2023/08/04 09:26:45;;;;;;;1.67;1.13;;;27.80;45.30;;;;;;5049693;28;20459;-45
2023/08/04 09:29:12;;;;;;;3.07;1.10;;;27.80;45.40;;;;;;5052119;28;20466;-46
2023/08/04 09:31:40;;;;;;;1.30;0.87;;;27.80;46.00;;;;;;5050298;28;20973;-43
2023/08/04 09:34:07;;;;;;;1.77;1.10;;;27.70;45.70;;;;;;5051050;28;20483;-43
2023/08/04 09:36:40;;;;;;;1.77;1.20;;;27.70;45.70;;;;;;5050343;28;20791;-45
2023/08/04 09:39:05;;;;;;;3.00;1.00;;;27.80;45.30;;;;;;5052669;28;20438;-45
2023/08/04 09:41:42;;;;;;;2.23;0.87;;;28.00;45.40;;;;;;5050250;28;20497;-44
2023/08/04 09:44:08;;;;;;;1.13;1.03;;;28.20;46.10;;;;;;5052078;28;20184;-45
2023/08/04 09:46:47;;;;;;;1.83;1.23;;;28.30;46.90;;;;;;5050758;28;20478;-45
2023/08/04 09:49:13;;;;;;;1.37;1.10;;;28.40;45.50;;;;;;5051266;28;20478;-43
2023/08/04 09:51:41;;;;;;;1.23;0.80;;;28.50;44.90;;;;;;5045752;28;20844;-43
2023/08/04 09:54:07;;;;;;;2.03;1.27;;;28.60;44.60;;;;;;5047184;28;20812;-43
2023/08/04 09:56:33;;;;;;;1.40;0.90;;;28.60;44.60;;;;;;5046591;28;20538;-47
2023/08/04 09:58:59;;;;;;;1.10;1.00;;;28.80;44.20;;;;;;5044383;28;20283;-45
2023/08/04 10:01:25;;;;;;;1.93;1.07;;;29.10;45.50;;;;;;5042330;28;20570;-43
2023/08/04 10:03:54;;;;;;;1.23;1.13;;;29.20;45.50;;;;;;5049699;28;20196;-45
2023/08/04 10:06:20;;;;;;;1.10;1.00;;;29.40;43.50;;;;;;5049891;28;20439;-46
2023/08/04 10:08:48;;;;;;;2.70;1.17;;;29.50;42.60;;;;;;5045077;28;20452;-44
2023/08/04 10:11:14;;;;;;;1.03;0.93;;;29.60;42.80;;;;;;5047351;28;20482;-43
2023/08/04 10:13:42;;;;;;;2.00;1.43;;;29.60;43.30;;;;;;5052016;28;20462;-43
2023/08/04 10:16:11;;;;;;;1.80;1.10;;;29.70;43.80;;;;;;5051198;28;20185;-47
2023/08/04 10:18:53;;;;;;;2.57;1.30;;;29.80;44.40;;;;;;5051900;28;20431;-44
2023/08/04 10:21:21;;;;;;;1.80;1.20;;;29.90;42.50;;;;;;5049854;28;20574;-48
2023/08/04 10:23:47;;;;;;;2.47;1.30;;;30.10;42.50;;;;;;5051844;28;20914;-44
2023/08/04 10:26:14;;;;;;;1.03;0.93;;;30.20;43.00;;;;;;5045241;28;20447;-46
2023/08/04 10:29:08;;;;;;;1.40;1.03;;;30.50;41.30;;;;;;5050326;28;20424;-44
2023/08/04 10:31:57;;;;;;;6.20;2.30;;;30.30;40.20;;;;;;5048027;28;20451;-45
2023/08/04 10:34:33;;;;;;;0.97;0.83;;;30.20;40.00;;;;;;5047187;28;20919;-45
2023/08/04 10:37:20;;;;;;;1.33;1.20;;;30.10;40.80;;;;;;5049622;28;20453;-46
2023/08/04 10:39:58;;;;;;;1.57;1.00;;;30.20;42.00;;;;;;5043732;28;20498;-44
2023/08/04 10:42:29;;;;;;;4.60;0.90;;;30.30;43.00;;;;;;5047561;28;20508;-44
2023/08/04 10:45:08;;;;;;;1.70;1.00;;;30.50;41.70;;;;;;5046895;28;20857;-45
2023/08/04 10:47:45;;;;;;;1.33;0.93;;;30.60;40.80;;;;;;5041845;28;20987;-44
2023/08/04 10:50:11;;;;;;;1.43;0.97;;;30.70;40.90;;;;;;5050966;28;20985;-44
2023/08/04 10:52:38;;;;;;;1.20;0.97;;;30.90;42.00;;;;;;5051030;28;20522;-44
2023/08/04 10:55:06;;;;;;;1.27;1.00;;;31.10;41.70;;;;;;5048800;28;20462;-47
2023/08/04 10:57:33;;;;;;;1.10;1.00;;;31.30;40.70;;;;;;5049330;28;20431;-45
2023/08/04 10:59:59;;;;;;;1.70;1.00;;;31.10;39.20;;;;;;5050425;28;20500;-44
2023/08/04 11:02:26;;;;;;;2.07;1.40;;;31.00;41.00;;;;;;5044198;28;20477;-44
2023/08/04 11:04:53;;;;;;;1.10;1.00;;;30.90;39.80;;;;;;5037554;28;20439;-46
2023/08/04 11:07:20;;;;;;;3.43;1.00;;;31.00;39.80;;;;;;5038674;28;20797;-49
2023/08/04 11:09:46;;;;;;;1.07;0.80;;;30.90;39.40;;;;;;5035565;28;20527;-48
2023/08/04 11:12:14;;;;;;;1.00;0.80;;;30.70;39.30;;;;;;5036712;28;20446;-48
2023/08/04 11:14:39;;;;;;;2.27;1.23;;;30.50;39.90;;;;;;5039130;28;20452;-47
2023/08/04 11:17:19;;;;;;;1.90;1.13;;;30.20;40.60;;;;;;5040278;28;21061;-44
2023/08/04 11:19:50;;;;;;;2.10;1.30;;;30.00;41.70;;;;;;5042463;28;20278;-43
2023/08/04 11:22:17;;;;;;;2.50;1.00;;;29.80;41.90;;;;;;5032592;28;21235;-45
2023/08/04 11:24:44;;;;;;;3.43;1.13;;;29.60;42.20;;;;;;5044082;28;20468;-42
2023/08/04 11:27:12;;;;;;;1.20;0.90;;;29.40;42.80;;;;;;5042622;28;20463;-44
2023/08/04 11:29:38;;;;;;;2.97;1.00;;;29.40;42.90;;;;;;5040906;28;20964;-44
2023/08/04 11:32:10;;;;;;;1.20;0.90;;;29.30;42.90;;;;;;5041121;28;20451;-45
2023/08/04 11:34:36;;;;;;;0.90;0.70;;;29.10;43.00;;;;;;5043802;28;20833;-44
2023/08/04 11:37:01;;;;;;;1.53;0.90;;;29.00;43.30;;;;;;5040329;28;20496;-45
2023/08/04 11:39:28;;;;;;;2.30;1.00;;;29.10;43.20;;;;;;5039680;28;20200;-45
2023/08/04 11:41:54;;;;;;;1.40;0.97;;;28.90;43.40;;;;;;5046548;28;20277;-46
2023/08/04 11:44:20;;;;;;;3.33;1.30;;;28.90;43.70;;;;;;5043262;28;20523;-45
2023/08/04 11:46:45;;;;;;;1.43;0.80;;;28.90;43.70;;;;;;5043794;28;20189;-45
2023/08/04 11:49:11;;;;;;;0.90;0.80;;;28.80;43.90;;;;;;5037881;28;20458;-45
2023/08/04 11:51:42;;;;;;;3.70;1.10;;;28.70;43.90;;;;;;5040280;28;20182;-45
2023/08/04 11:54:19;;;;;;;1.20;1.00;;;28.60;44.40;;;;;;5041379;28;20208;-45
2023/08/04 11:56:45;;;;;;;1.57;1.10;;;28.70;44.60;;;;;;5045893;28;20446;-45
2023/08/04 11:59:12;;;;;;;1.10;0.90;;;28.70;44.50;;;;;;5047172;28;20439;-46
2023/08/04 12:01:37;;;;;;;0.87;0.83;;;28.80;44.80;;;;;;5045832;28;20243;-45
2023/08/04 12:04:20;;;;;;;1.37;1.20;;;28.80;45.40;;;;;;5048606;28;20900;-46
2023/08/04 12:06:46;;;;;;;1.90;0.80;;;28.70;46.10;;;;;;5047588;28;20199;-44
2023/08/04 12:09:11;;;;;;;1.03;0.93;;;28.70;46.10;;;;;;5047582;28;20443;-49
2023/08/04 12:11:47;;;;;;;2.60;1.00;;;28.60;46.10;;;;;;5044146;28;20224;-45
2023/08/04 12:14:13;;;;;;;2.10;1.10;;;28.60;46.30;;;;;;5046973;28;20191;-50
2023/08/04 12:16:52;;;;;;;2.80;0.83;;;28.50;46.40;;;;;;5038081;28;20431;-44
2023/08/04 12:19:19;;;;;;;1.93;0.97;;;28.40;46.60;;;;;;5053928;28;20200;-45
2023/08/04 12:21:44;;;;;;;1.77;1.20;;;28.20;46.70;;;;;;5051444;28;20486;-45
2023/08/04 12:24:11;;;;;;;1.30;1.20;;;28.10;46.50;;;;;;5047304;28;20443;-48
2023/08/04 12:26:37;;;;;;;4.37;1.10;;;28.00;46.80;;;;;;5043245;28;20196;-46
2023/08/04 12:29:03;;;;;;;1.53;1.10;;;27.90;46.90;;;;;;5043516;28;20458;-44
2023/08/04 12:31:28;;;;;;;1.43;0.87;;;27.90;47.00;;;;;;5044385;28;20331;-44
2023/08/04 12:33:54;;;;;;;2.20;1.10;;;27.90;46.90;;;;;;5036396;28;20239;-51
2023/08/04 12:36:19;;;;;;;1.37;0.80;;;27.90;47.10;;;;;;5044633;28;20196;-44
2023/08/04 12:38:46;;;;;;;1.67;0.90;;;27.80;47.20;;;;;;5040752;28;20779;-49
2023/08/04 12:41:12;;;;;;;1.50;1.00;;;27.80;47.10;;;;;;5047028;28;20672;-47
2023/08/04 12:43:37;;;;;;;2.10;1.00;;;27.90;46.80;;;;;;5039832;28;20443;-45
2023/08/04 12:46:03;;;;;;;2.67;1.23;;;27.80;46.70;;;;;;5041987;28;20285;-44